Terminal Aerodrome Forecast
Issued by NWS Sioux Falls, SD

Home | Current Version | Previous Version | Text Only | Print | Product List | Glossary Off
Versions: 1 2 3 4 5 6 7 8 9 10 11 12 13 14 15 16 17 18 19 20 21 22 23 24 25

000
FTUS43 KFSD 281720
TAFFSD
TAF
KFSD 281720Z 2818/2918 14010KT P6SM OVC008
     FM282000 06007KT P6SM OVC015
     FM290100 VRB05KT P6SM SCT015 BKN200
     FM290900 VRB05KT 2SM BR BKN005
     FM291500 32005KT P6SM OVC015=

USA.gov is the U.S. government's official web portal to all federal, state and local government web resources and services.